Time;durP1;ratioP1;P1;durP2;ratioP2;P2;SDS_P1;SDS_P2;PMS_P1;PMS_P2;Temp;Humidity;BMP_temperature;BMP_pressure;BME280_temperature;BME280_humidity;BME280_pressure;Samples;Min_cycle;Max_cycle;Signal;HPM_P1;HPM_P2
2022/05/16 14:28:51;;;;;;;12.50;3.30;;;;;;;10.63;73.55;100934.59;5049996;28;20849;-64
2022/05/16 14:31:26;;;;;;;3.97;3.17;;;;;;;10.80;72.23;100957.66;5049518;28;20033;-63
2022/05/16 14:34:13;;;;;;;6.87;2.60;;;;;;;10.62;71.95;100910.78;5049310;28;20099;-65
2022/05/16 14:36:41;;;;;;;6.60;2.50;;;;;;;10.94;71.66;100936.72;5050164;28;20047;-67
2022/05/16 14:39:13;;;;;;;8.88;2.25;;;;;;;11.02;72.25;100942.13;5052048;28;20071;-66
2022/05/16 14:42:10;;;;;;;13.77;3.50;;;;;;;11.07;72.51;100934.47;5055688;28;20033;-64
2022/05/16 15:36:16;;;;;;;4.00;2.10;;;;;;;11.44;65.76;100924.22;5110064;27;20788;-65
2022/05/16 15:39:13;;;;;;;7.43;3.30;;;;;;;11.22;64.86;100876.84;5110098;28;20123;-63
2022/05/16 15:41:40;;;;;;;6.17;3.50;;;;;;;11.41;65.01;100915.72;5110001;28;20040;-63
2022/05/16 15:44:05;;;;;;;15.63;5.77;;;;;;;11.39;65.32;100905.22;5108225;28;20047;-67
2022/05/16 15:46:32;;;;;;;8.40;3.90;;;;;;;11.41;65.31;100919.22;5110509;28;20032;-66
2022/05/16 15:48:58;;;;;;;9.73;3.73;;;;;;;11.44;65.41;100916.22;5110273;28;20112;-66
2022/05/16 15:51:25;;;;;;;3.30;2.60;;;;;;;11.30;64.97;100908.88;5092409;28;20119;-66
2022/05/16 15:53:51;;;;;;;2.00;1.80;;;;;;;11.28;64.86;100902.88;5111118;28;20036;-62
2022/05/16 15:56:18;;;;;;;8.70;1.77;;;;;;;11.22;64.98;100905.34;5111187;28;20057;-66
2022/05/16 15:58:45;;;;;;;7.53;1.50;;;;;;;11.22;65.50;100914.16;5114293;28;20061;-68
2022/05/16 16:01:11;;;;;;;6.73;2.53;;;;;;;11.17;65.34;100917.31;5111075;28;20544;-67
2022/05/16 16:09:23;;;;;;;24.20;3.03;;;;;;;11.01;64.72;100900.47;5102220;28;20047;-62
2022/05/16 16:11:49;;;;;;;2.80;1.20;;;;;;;10.86;64.35;100901.06;5109184;28;20410;-68
2022/05/16 16:14:16;;;;;;;3.20;2.33;;;;;;;10.86;65.10;100914.41;5110002;28;20043;-69
2022/05/16 16:16:44;;;;;;;5.77;1.90;;;;;;;10.76;65.30;100910.19;5110022;28;20544;-65
2022/05/16 16:19:17;;;;;;;4.10;2.83;;;;;;;10.78;65.41;100910.88;5109478;28;20043;-72
2022/05/16 16:21:43;;;;;;;5.73;1.83;;;;;;;10.74;64.87;100902.38;5109536;28;20060;-66
2022/05/16 16:24:08;;;;;;;9.37;3.87;;;;;;;10.82;65.33;100918.38;5091340;28;20100;-71
2022/05/16 16:26:34;;;;;;;7.77;3.67;;;;;;;10.82;65.37;100929.03;5108876;28;20118;-69
2022/05/16 16:29:00;;;;;;;6.30;4.43;;;;;;;10.75;65.59;100925.34;5108476;28;20067;-62
2022/05/16 16:31:25;;;;;;;8.23;2.83;;;;;;;10.64;66.25;100930.09;5108745;28;20035;-67
2022/05/16 16:34:00;;;;;;;3.07;1.60;;;;;;;10.45;67.22;100955.97;5091246;28;20039;-74
2022/05/16 16:36:51;;;;;;;3.90;2.30;;;;;;;10.17;72.08;100997.00;5098304;28;20050;-65
2022/05/16 16:39:18;;;;;;;8.03;2.80;;;;;;;9.57;76.47;100994.97;5096148;28;20513;-71
2022/05/16 16:41:45;;;;;;;2.97;2.30;;;;;;;9.03;77.11;101001.13;5078678;28;20040;-70
2022/05/16 16:44:13;;;;;;;2.33;2.03;;;;;;;8.62;78.94;100986.47;5077651;28;20036;-71
2022/05/16 16:46:41;;;;;;;3.00;2.40;;;;;;;8.51;79.16;100991.94;5095433;28;20042;-69
2022/05/16 16:49:07;;;;;;;2.97;2.58;;;;;;;8.44;79.72;100994.34;5095605;28;20060;-69
2022/05/16 16:57:29;;;;;;;6.03;3.53;;;;;;;8.32;83.29;100996.28;5094819;28;20036;-68
2022/05/16 16:59:57;;;;;;;4.63;3.20;;;;;;;8.22;83.02;100984.84;5095050;28;20036;-74
2022/05/16 17:02:26;;;;;;;10.40;8.80;;;;;;;8.40;83.65;101002.75;5076875;28;20486;-69
2022/05/16 17:04:55;;;;;;;14.87;13.37;;;;;;;8.33;84.10;100987.38;5094691;28;20097;-70
2022/05/16 17:07:21;;;;;;;7.95;6.75;;;;;;;8.33;82.96;100974.09;5094995;28;20070;-67
2022/05/16 17:09:47;;;;;;;8.80;7.47;;;;;;;8.47;83.03;100996.72;5095508;28;20085;-68
2022/05/16 17:12:13;;;;;;;9.90;6.73;;;;;;;8.50;83.41;100992.94;5096273;28;20035;-68
2022/05/16 17:14:39;;;;;;;4.07;3.50;;;;;;;8.50;82.79;100987.63;5094719;28;20040;-65
2022/05/16 17:17:05;;;;;;;8.20;4.30;;;;;;;8.44;83.60;100983.72;5094121;28;20089;-68
2022/05/16 17:19:31;;;;;;;3.90;3.03;;;;;;;8.44;83.71;100985.53;5094042;28;20040;-68
2022/05/16 17:21:58;;;;;;;11.20;4.40;;;;;;;8.42;83.70;100979.53;5094799;28;20040;-66
2022/05/16 17:24:24;;;;;;;4.60;3.67;;;;;;;8.54;83.80;100994.31;5094608;28;20122;-66
2022/05/16 17:26:52;;;;;;;8.50;5.23;;;;;;;8.48;83.95;100974.50;5094504;28;20043;-66
2022/05/16 17:29:18;;;;;;;11.73;7.90;;;;;;;8.62;83.87;101000.56;5094384;28;20040;-65
2022/05/16 17:31:47;;;;;;;10.90;6.93;;;;;;;8.61;83.09;100995.41;5095119;28;20039;-66
2022/05/16 17:34:17;;;;;;;10.48;5.18;;;;;;;8.64;83.18;101001.25;5096195;28;20048;-64
2022/05/16 17:36:43;;;;;;;7.67;6.03;;;;;;;8.58;83.50;100985.06;5098613;28;20043;-67
2022/05/16 17:39:09;;;;;;;14.23;8.53;;;;;;;8.61;83.80;100992.75;5098215;28;20055;-67
2022/05/16 17:42:03;;;;;;;14.63;9.50;;;;;;;8.59;84.47;100984.09;5095847;28;20513;-67
2022/05/16 17:44:29;;;;;;;11.67;9.07;;;;;;;8.53;84.34;100976.72;5098211;28;20059;-70
2022/05/16 17:46:55;;;;;;;10.10;7.57;;;;;;;8.69;84.74;100987.56;5095249;28;20036;-67
2022/05/16 17:49:20;;;;;;;7.50;5.77;;;;;;;8.74;84.67;100998.59;5093615;28;20036;-66
2022/05/16 17:51:51;;;;;;;5.63;4.90;;;;;;;8.76;85.03;100998.44;5093919;28;20042;-65
2022/05/16 17:54:23;;;;;;;10.27;3.80;;;;;;;8.74;84.48;101001.25;5094406;28;20039;-68
2022/05/16 17:56:50;;;;;;;5.53;3.70;;;;;;;8.77;84.51;101000.97;5097416;28;20383;-68
2022/05/16 17:59:17;;;;;;;6.15;3.70;;;;;;;8.74;84.60;101003.91;5097677;28;20036;-68
2022/05/16 18:01:44;;;;;;;5.77;3.30;;;;;;;8.67;84.90;101008.09;5097257;28;20513;-64
2022/05/16 18:04:14;;;;;;;4.93;4.27;;;;;;;8.64;85.35;101011.88;5095045;28;20036;-70
2022/05/16 18:06:44;;;;;;;7.90;5.87;;;;;;;8.59;84.72;101005.34;5093989;28;20040;-71
2022/05/16 18:09:10;;;;;;;5.67;3.53;;;;;;;8.64;84.72;101024.31;5093418;28;20081;-71
2022/05/16 18:14:21;;;;;;;3.67;3.30;;;;;;;8.57;84.55;101007.28;5093105;28;20494;-65
2022/05/16 18:16:49;;;;;;;3.67;2.53;;;;;;;8.53;84.05;101013.88;5093637;28;20394;-65
2022/05/16 18:19:15;;;;;;;5.10;2.97;;;;;;;8.47;83.83;101009.16;5074479;28;20444;-66
2022/05/16 18:21:42;;;;;;;3.30;2.20;;;;;;;8.51;84.31;101021.16;5058310;28;20509;-66
2022/05/16 18:24:10;;;;;;;2.90;2.47;;;;;;;8.48;83.95;101016.97;5092697;28;20040;-66
2022/05/16 18:26:40;;;;;;;4.00;2.07;;;;;;;8.37;84.17;101007.31;5092495;28;20039;-66
2022/05/16 18:29:07;;;;;;;3.87;2.60;;;;;;;8.37;84.86;101012.63;5074834;28;20078;-65
2022/05/16 18:31:33;;;;;;;5.07;2.93;;;;;;;8.29;85.30;100996.56;5074756;28;20058;-67
2022/05/16 18:34:03;;;;;;;4.57;2.80;;;;;;;8.16;86.16;100971.31;5092543;28;20036;-70
2022/05/16 18:36:28;;;;;;;3.80;2.47;;;;;;;8.36;85.67;101008.31;5092660;28;20055;-69
2022/05/16 18:38:56;;;;;;;6.47;4.00;;;;;;;8.29;85.59;100985.94;5074488;28;20036;-69
2022/05/16 18:41:31;;;;;;;3.40;2.47;;;;;;;8.36;86.28;100992.38;5093010;28;20036;-70
2022/05/16 18:52:10;;;;;;;5.53;5.03;;;;;;;8.50;85.60;101016.81;5077584;28;20074;-69
2022/05/16 18:54:36;;;;;;;9.57;8.27;;;;;;;8.38;84.99;100995.75;5092757;28;20068;-74
2022/05/16 18:57:03;;;;;;;8.90;6.83;;;;;;;8.44;86.10;101004.13;5092647;28;20165;-74
2022/05/16 18:59:29;;;;;;;8.23;7.43;;;;;;;8.49;85.94;101013.31;5092023;28;20062;-67
2022/05/16 19:01:55;;;;;;;6.37;5.60;;;;;;;8.44;85.66;101014.75;5092231;28;20606;-65
2022/05/16 19:04:23;;;;;;;6.87;6.17;;;;;;;8.29;86.20;100980.63;5092800;28;20048;-65
2022/05/16 19:06:49;;;;;;;6.60;6.00;;;;;;;8.38;85.93;100993.09;5092724;28;20040;-64
2022/05/16 19:09:15;;;;;;;9.10;7.50;;;;;;;8.41;86.65;100999.09;5092440;28;20101;-67
2022/05/16 19:11:45;;;;;;;7.17;5.63;;;;;;;8.44;86.41;101002.31;5092094;28;20040;-65
2022/05/16 19:14:11;;;;;;;7.10;4.27;;;;;;;8.33;87.13;100997.97;5095623;28;20465;-64
2022/05/16 19:16:37;;;;;;;4.97;3.70;;;;;;;8.37;86.90;101009.97;5101561;28;20115;-65
2022/05/16 19:19:04;;;;;;;5.17;4.67;;;;;;;8.36;86.75;100997.69;5100491;28;20032;-63
2022/05/16 19:21:38;;;;;;;5.20;4.70;;;;;;;8.36;87.23;101000.34;5100913;28;20028;-65
2022/05/16 19:24:06;;;;;;;8.40;5.07;;;;;;;8.47;86.63;101009.97;5091762;28;20423;-64
2022/05/16 19:26:31;;;;;;;6.53;4.30;;;;;;;8.49;87.03;101012.50;5091721;28;20119;-64
2022/05/16 19:32:00;;;;;;;5.47;3.93;;;;;;;8.27;86.37;100966.69;5091906;28;20129;-63
2022/05/16 19:34:35;;;;;;;7.47;5.00;;;;;;;8.55;86.03;101011.91;5076130;28;20055;-64
2022/05/16 19:37:03;;;;;;;4.97;3.67;;;;;;;8.53;85.72;101013.88;5073249;28;20512;-64
2022/05/16 19:39:29;;;;;;;5.53;3.13;;;;;;;8.49;84.87;101023.09;5091665;28;20513;-66
2022/05/16 19:41:56;;;;;;;2.77;2.13;;;;;;;8.44;85.31;101020.06;5092010;28;20040;-66
2022/05/16 19:44:22;;;;;;;2.97;2.67;;;;;;;8.39;85.84;101017.81;5091987;28;20494;-64
2022/05/16 19:46:48;;;;;;;6.27;3.73;;;;;;;8.43;85.99;101023.69;5073908;28;20101;-64
2022/05/16 19:49:13;;;;;;;3.43;2.60;;;;;;;8.33;86.21;101005.94;5091722;28;20111;-63
2022/05/16 19:51:39;;;;;;;4.03;2.30;;;;;;;8.49;86.12;101023.09;5091564;28;20410;-64
2022/05/16 19:54:06;;;;;;;4.90;3.73;;;;;;;8.45;86.68;101027.03;5091793;28;20334;-65
2022/05/16 19:56:33;;;;;;;3.37;2.73;;;;;;;8.35;86.42;101011.94;5091769;28;20039;-64
2022/05/16 19:58:59;;;;;;;3.87;2.83;;;;;;;8.39;87.05;101015.16;5091757;28;20024;-68
2022/05/16 20:01:25;;;;;;;5.73;4.03;;;;;;;8.38;86.83;101013.47;5091927;28;20044;-65
2022/05/16 20:03:51;;;;;;;7.23;5.50;;;;;;;8.37;86.49;101017.94;5091368;28;20081;-65
2022/05/16 20:06:17;;;;;;;3.83;3.07;;;;;;;8.23;85.58;100996.28;5073332;28;20032;-63
2022/05/16 20:08:43;;;;;;;5.03;4.13;;;;;;;8.28;86.26;101002.00;5092444;28;20089;-65
2022/05/16 20:11:09;;;;;;;5.07;4.57;;;;;;;8.27;86.07;101003.00;5093543;28;20081;-63
2022/05/16 20:13:35;;;;;;;4.83;4.33;;;;;;;8.30;86.55;101010.66;5096409;28;20036;-63
2022/05/16 20:16:00;;;;;;;4.10;3.70;;;;;;;8.24;86.15;101009.41;5096851;28;20031;-66
2022/05/16 20:18:26;;;;;;;6.77;3.90;;;;;;;8.26;85.72;101012.75;5096056;28;20050;-64
2022/05/16 20:20:52;;;;;;;6.00;5.40;;;;;;;8.16;87.13;100996.03;5096075;28;20031;-63
2022/05/16 20:26:03;;;;;;;11.60;8.83;;;;;;;8.21;87.00;100998.25;5079932;28;20080;-64
2022/05/16 20:28:30;;;;;;;10.57;8.47;;;;;;;8.12;87.42;100994.66;5095166;28;20407;-65
2022/05/16 20:30:55;;;;;;;7.97;7.17;;;;;;;8.21;86.80;101009.72;5095163;28;20541;-66
2022/05/16 20:33:23;;;;;;;7.13;6.43;;;;;;;8.10;86.04;100991.28;5095329;28;20055;-66
2022/05/16 20:35:52;;;;;;;8.05;6.60;;;;;;;8.16;87.15;100996.03;5095057;28;20535;-63
2022/05/16 20:38:19;;;;;;;5.88;5.38;;;;;;;8.18;86.84;100999.38;5095219;28;20048;-65
2022/05/16 20:40:48;;;;;;;6.27;5.43;;;;;;;8.11;86.55;100989.47;5095056;28;20035;-64
2022/05/16 20:43:14;;;;;;;6.47;5.87;;;;;;;8.03;86.69;100990.16;5094765;28;20194;-64
2022/05/16 20:45:40;;;;;;;3.90;3.43;;;;;;;7.90;86.70;100974.53;5094525;28;20044;-64
2022/05/16 20:48:07;;;;;;;4.37;3.97;;;;;;;7.97;86.22;100990.72;5094731;28;20097;-65
2022/05/16 20:50:35;;;;;;;5.10;4.43;;;;;;;8.04;85.95;100997.13;5076957;28;20036;-63
2022/05/16 20:53:04;;;;;;;5.10;4.40;;;;;;;8.02;85.93;100999.09;5094537;28;20032;-67
2022/05/16 20:55:31;;;;;;;;;;;;;;;8.05;86.05;101002.31;5095191;28;20551;-66
2022/05/16 20:57:57;;;;;;;6.30;3.97;;;;;;;7.98;85.55;100989.75;5094650;28;20021;-65
2022/05/16 21:00:29;;;;;;;3.03;2.83;;;;;;;7.74;86.18;100963.66;5094546;28;20512;-67
2022/05/16 21:02:55;;;;;;;3.10;2.67;;;;;;;7.98;85.74;100998.53;5076573;28;20036;-63
2022/05/16 21:05:22;;;;;;;3.03;2.67;;;;;;;7.96;85.92;100997.00;5076566;28;20126;-65
2022/05/16 21:07:48;;;;;;;3.87;2.83;;;;;;;7.88;86.26;100987.09;5094644;28;20122;-63
2022/05/16 21:10:14;;;;;;;3.37;3.07;;;;;;;7.81;86.18;100988.66;5094328;28;20131;-64
2022/05/16 21:12:41;;;;;;;3.30;2.47;;;;;;;7.88;86.04;101008.31;5094251;28;20034;-63
2022/05/16 21:15:10;;;;;;;3.17;2.90;;;;;;;7.76;84.99;100994.34;5094231;28;20123;-64
2022/05/16 21:17:36;;;;;;;2.20;2.00;;;;;;;7.47;85.56;100945.78;5094424;28;20410;-65
2022/05/16 21:20:04;;;;;;;4.33;2.27;;;;;;;7.80;85.93;101004.66;5094556;28;20532;-64
2022/05/16 21:22:29;;;;;;;4.87;2.27;;;;;;;7.74;85.02;100996.28;5094145;28;20032;-62
2022/05/16 21:24:55;;;;;;;4.83;3.50;;;;;;;7.72;85.66;100981.50;5094217;28;20055;-61
2022/05/16 21:27:22;;;;;;;3.00;2.43;;;;;;;7.87;85.51;101016.41;5076148;28;20437;-64
2022/05/16 21:29:47;;;;;;;5.00;3.00;;;;;;;7.88;85.40;101003.03;5076683;28;20031;-64
2022/05/16 21:32:13;;;;;;;4.37;2.97;;;;;;;7.92;85.56;101003.56;5094843;28;20085;-65
2022/05/16 21:34:38;;;;;;;2.87;2.47;;;;;;;7.87;85.48;101001.34;5077761;28;20056;-62
2022/05/16 21:37:04;;;;;;;3.83;3.47;;;;;;;7.87;85.79;101000.50;5096391;28;20063;-64
2022/05/16 21:39:29;;;;;;;3.90;2.47;;;;;;;7.87;85.39;101004.00;5098820;28;20119;-63
2022/05/16 21:41:55;;;;;;;4.87;2.60;;;;;;;7.72;86.21;100992.13;5097363;28;20173;-62
2022/05/16 21:47:05;;;;;;;6.03;2.77;;;;;;;7.73;85.07;100996.44;5094947;28;20101;-62
2022/05/16 21:49:33;;;;;;;2.53;2.33;;;;;;;7.64;85.46;100984.84;5093627;28;20040;-65
2022/05/16 21:52:02;;;;;;;3.23;2.77;;;;;;;7.60;85.41;100983.47;5093676;28;20043;-63
2022/05/16 21:54:28;;;;;;;3.17;2.57;;;;;;;7.63;86.44;100987.66;5093275;28;20054;-63
2022/05/16 21:56:53;;;;;;;5.13;2.87;;;;;;;7.63;86.29;100993.78;5093753;28;20036;-65
2022/05/16 21:59:18;;;;;;;4.77;3.70;;;;;;;7.55;86.63;100980.41;5093550;28;20542;-63
2022/05/16 22:01:44;;;;;;;3.87;3.47;;;;;;;7.59;85.94;100996.84;5093276;28;20024;-63
2022/05/16 22:04:14;;;;;;;3.80;3.37;;;;;;;7.54;86.05;100976.06;5093332;28;20032;-62
2022/05/16 22:06:40;;;;;;;4.30;3.63;;;;;;;7.62;86.52;100992.13;5093253;28;20498;-63
2022/05/16 22:09:09;;;;;;;4.60;3.30;;;;;;;7.66;86.06;100996.16;5093109;28;20134;-62
2022/05/16 22:11:35;;;;;;;;;;;;;;;7.75;85.95;100995.31;5093808;28;20123;-64
2022/05/16 22:14:01;;;;;;;4.07;2.67;;;;;;;7.67;85.76;100973.13;5093471;28;19916;-61
2022/05/16 22:16:28;;;;;;;3.40;3.03;;;;;;;7.82;85.96;100986.84;5075887;28;20047;-64
2022/05/16 22:18:59;;;;;;;5.23;3.87;;;;;;;7.77;86.30;100979.28;5095708;28;20055;-60
2022/05/16 22:21:51;;;;;;;4.43;3.90;;;;;;;7.89;86.39;100995.91;5095151;28;20038;-63
2022/05/16 22:24:18;;;;;;;3.27;2.97;;;;;;;7.63;85.56;100946.06;5090419;28;20054;-64
2022/05/16 22:26:46;;;;;;;4.73;3.23;;;;;;;7.90;85.07;100986.97;5095483;28;20063;-63
2022/05/16 22:29:12;;;;;;;4.50;4.10;;;;;;;7.93;85.28;100994.63;5097511;28;20169;-62
2022/05/16 22:31:39;;;;;;;3.83;3.37;;;;;;;7.91;85.26;100986.00;5095431;28;20457;-61
2022/05/16 22:34:08;;;;;;;2.90;2.53;;;;;;;7.58;84.78;100935.06;5094159;28;20027;-63
2022/05/16 22:36:34;;;;;;;3.83;2.63;;;;;;;7.87;84.88;100992.56;5093625;28;20113;-63
2022/05/16 22:39:00;;;;;;;4.47;2.83;;;;;;;7.65;85.04;100973.28;5094506;28;20043;-62
2022/05/16 22:41:26;;;;;;;3.20;2.70;;;;;;;7.66;85.30;100985.56;5095250;28;20487;-62
2022/05/16 22:43:54;;;;;;;3.40;2.67;;;;;;;7.34;84.82;100950.50;5094793;28;20410;-62
2022/05/16 22:46:19;;;;;;;2.43;2.10;;;;;;;7.51;84.83;100994.03;5092910;28;20036;-63
2022/05/16 22:48:44;;;;;;;3.07;2.07;;;;;;;7.39;84.82;100980.91;5074261;28;20051;-62
2022/05/16 22:51:10;;;;;;;2.77;2.53;;;;;;;7.32;84.72;100973.66;5092418;28;20046;-65
2022/05/16 22:53:35;;;;;;;3.27;2.87;;;;;;;7.32;85.11;100997.50;5092558;28;20406;-64
2022/05/16 22:56:03;;;;;;;2.97;2.77;;;;;;;7.29;85.14;100995.13;5092254;28;20040;-63
2022/05/16 22:58:28;;;;;;;3.37;2.50;;;;;;;7.25;85.33;100999.84;5092371;28;20056;-62
2022/05/16 23:00:54;;;;;;;2.60;2.40;;;;;;;7.19;85.24;100994.25;5092460;28;20442;-62
2022/05/16 23:03:33;;;;;;;3.10;2.20;;;;;;;7.18;85.31;100997.88;5092398;28;20040;-61
2022/05/16 23:06:04;;;;;;;3.47;2.40;;;;;;;7.13;85.55;100995.63;5093605;28;20075;-62
2022/05/16 23:08:31;;;;;;;3.20;2.90;;;;;;;7.03;86.45;100987.66;5092245;28;20063;-64
2022/05/16 23:10:57;;;;;;;2.80;2.60;;;;;;;7.02;85.54;100993.94;5074351;28;20123;-61
2022/05/16 23:13:23;;;;;;;3.37;3.07;;;;;;;6.79;86.77;100965.97;5058202;28;20039;-64
2022/05/16 23:15:51;;;;;;;4.60;3.10;;;;;;;6.94;86.43;100996.41;5092023;28;20069;-62
2022/05/16 23:18:18;;;;;;;3.90;3.00;;;;;;;6.83;86.00;100992.03;5092022;28;20094;-61
2022/05/16 23:20:43;;;;;;;4.20;3.70;;;;;;;6.56;86.52;100946.78;5092102;28;20044;-63
2022/05/16 23:23:09;;;;;;;2.67;2.47;;;;;;;6.70;86.54;100982.66;5092062;28;20047;-62
2022/05/16 23:25:34;;;;;;;4.20;3.80;;;;;;;6.76;86.86;100996.19;5091990;28;20079;-66
2022/05/16 23:28:00;;;;;;;4.53;3.03;;;;;;;6.73;87.24;100999.09;5073885;28;20044;-62
2022/05/16 23:30:26;;;;;;;3.27;2.60;;;;;;;6.70;87.12;100998.53;5091741;28;20123;-62
2022/05/16 23:32:52;;;;;;;3.40;2.50;;;;;;;6.61;87.25;100986.06;5091866;28;20036;-63
2022/05/16 23:35:20;;;;;;;3.77;3.23;;;;;;;6.51;87.14;100968.34;5092265;28;20071;-64
2022/05/16 23:37:46;;;;;;;;;;;;;;;6.64;87.03;100994.56;5092237;28;20109;-64
2022/05/16 23:40:12;;;;;;;3.53;2.70;;;;;;;6.39;87.25;100964.09;5092114;28;19916;-63
2022/05/16 23:42:38;;;;;;;3.93;3.23;;;;;;;6.45;87.52;100975.97;5091695;28;20490;-63
2022/05/16 23:45:05;;;;;;;3.57;3.27;;;;;;;6.40;87.07;100980.81;5092010;28;20062;-64
2022/05/16 23:47:31;;;;;;;3.43;3.10;;;;;;;6.41;87.86;100996.56;5096226;28;20047;-64
2022/05/16 23:49:57;;;;;;;2.47;2.27;;;;;;;5.77;87.43;100885.59;5096087;28;20032;-62
2022/05/16 23:52:23;;;;;;;3.13;2.60;;;;;;;6.39;86.64;100982.63;5095579;28;20449;-62
2022/05/16 23:54:49;;;;;;;4.90;2.90;;;;;;;6.39;85.98;100995.00;5095558;28;20036;-64
2022/05/16 23:57:15;;;;;;;3.23;2.90;;;;;;;6.38;86.20;100994.19;5095652;28;20032;-62
2022/05/16 23:59:41;;;;;;;3.60;3.30;;;;;;;6.38;86.09;101004.75;5095870;28;20036;-62
